createdAt,value
2023-01-05T01:57:05.210Z,21.50
2023-01-05T02:04:56.114Z,21.90
2023-01-05T02:21:10.347Z,22.40
2023-01-05T02:24:26.197Z,22.40
2023-01-05T02:27:24.195Z,22.30
2023-01-05T02:30:36.402Z,22.40
2023-01-05T02:33:25.495Z,22.30
2023-01-05T02:36:08.877Z,22.20
2023-01-05T02:38:50.420Z,22.20
2023-01-05T02:41:30.904Z,22.20
2023-01-05T03:13:46.263Z,22.20
2023-01-05T03:16:30.815Z,22.10
2023-01-05T03:19:26.110Z,22.10
2023-01-05T03:47:08.209Z,22.00
2023-01-05T03:57:34.821Z,22.20
2023-01-05T04:00:12.021Z,22.40
2023-01-05T04:02:53.461Z,22.30
2023-01-05T04:08:07.524Z,22.20
2023-01-05T04:18:33.191Z,22.20
2023-01-05T04:49:59.504Z,21.30
2023-01-05T04:52:36.265Z,21.30
2023-01-05T04:57:53.280Z,20.80
2023-01-05T05:00:31.200Z,20.80
2023-01-05T05:03:08.148Z,20.70
2023-01-05T07:33:57.684Z,20.00
2023-01-05T07:36:33.197Z,20.10
2023-01-05T07:39:09.028Z,20.20
2023-01-05T07:41:48.038Z,20.30
2023-01-05T07:44:25.300Z,20.30
2023-01-05T07:47:00.756Z,20.20
2023-01-05T08:52:29.719Z,19.90
2023-01-05T08:55:05.687Z,19.90
2023-01-05T08:57:42.205Z,19.90
2023-01-05T09:00:19.238Z,19.90
2023-01-05T09:26:20.241Z,19.90
2023-01-05T09:28:56.600Z,19.90
2023-01-05T09:31:32.460Z,19.80
2023-01-05T09:34:08.379Z,19.90
2023-01-05T09:36:44.570Z,19.90
2023-01-05T09:39:23.329Z,19.80
2023-01-05T09:42:01.723Z,19.80
2023-01-05T09:44:40.169Z,19.70
2023-01-05T09:47:25.146Z,19.70
2023-01-05T09:50:03.812Z,19.70
2023-01-05T09:52:40.616Z,19.80
2023-01-05T09:55:21.367Z,19.80
2023-01-05T09:58:00.028Z,19.80
2023-01-05T10:00:37.436Z,19.70
2023-01-05T10:03:37.074Z,19.70
2023-01-05T10:06:18.611Z,19.70
2023-01-05T10:39:30.625Z,19.70
2023-01-05T10:42:13.137Z,19.60
2023-01-05T10:45:00.802Z,19.60
2023-01-05T10:47:42.620Z,19.70
2023-01-05T10:50:41.100Z,19.70
2023-01-05T10:53:20.015Z,19.70
2023-01-05T10:56:06.132Z,19.70
2023-01-05T10:58:42.733Z,19.60
2023-01-05T11:01:32.414Z,19.50
2023-01-05T11:04:30.521Z,19.60
2023-01-05T11:07:11.759Z,19.60
2023-01-05T11:12:30.693Z,19.80
2023-01-05T11:17:49.584Z,19.70
2023-01-05T11:36:23.885Z,19.70
2023-01-05T11:39:02.407Z,19.90
2023-01-05T11:41:39.169Z,19.80
2023-01-05T11:44:25.509Z,19.80
2023-01-05T11:47:02.436Z,19.80
2023-01-05T11:49:41.220Z,19.80
2023-01-05T16:06:58.858Z,19.10
2023-01-05T16:09:38.073Z,19.10
2023-01-05T16:12:24.996Z,19.00
2023-01-05T16:15:09.150Z,19.00
2023-01-05T16:17:44.959Z,19.00
2023-01-05T16:20:23.377Z,19.00
2023-01-05T16:23:08.367Z,18.90
2023-01-05T16:25:47.720Z,18.90
2023-01-05T16:28:24.651Z,18.90
2023-01-05T16:31:02.437Z,18.90
2023-01-05T16:33:40.437Z,18.90
2023-01-05T16:36:23.178Z,18.80
2023-01-05T16:39:16.508Z,18.80
2023-01-05T16:42:09.013Z,18.80
2023-01-05T16:44:44.948Z,18.80
2023-01-05T16:47:40.038Z,18.70
2023-01-05T16:51:04.897Z,18.70
2023-01-05T16:53:45.390Z,18.60
2023-01-05T16:56:47.732Z,18.60
2023-01-05T16:59:46.312Z,18.60
2023-01-05T17:02:54.226Z,18.60
2023-01-05T17:05:31.361Z,18.60
2023-01-05T17:08:11.543Z,18.50
2023-01-05T17:10:47.751Z,18.50
2023-01-05T17:13:25.609Z,18.50
2023-01-05T17:16:01.579Z,18.50
2023-01-05T17:18:39.256Z,18.50
2023-01-05T17:21:18.594Z,18.50
2023-01-05T17:23:56.109Z,18.50
2023-01-05T17:26:36.865Z,18.50
2023-01-05T17:29:15.242Z,18.50
2023-01-05T17:31:50.935Z,18.60
2023-01-05T17:34:28.613Z,18.50
2023-01-05T17:37:05.999Z,18.60
2023-01-05T17:39:41.801Z,18.50
2023-01-05T17:42:33.536Z,18.50
2023-01-05T17:45:09.129Z,18.60
2023-01-05T17:47:45.307Z,18.50
2023-01-05T17:50:25.023Z,18.50
2023-01-05T17:53:01.364Z,18.50
2023-01-05T17:55:37.311Z,18.50
2023-01-05T17:58:16.396Z,18.50
2023-01-05T18:00:52.568Z,18.50
2023-01-05T18:03:28.174Z,18.50
2023-01-05T18:06:06.584Z,18.50
2023-01-05T18:11:19.807Z,18.50
2023-01-05T18:13:56.209Z,18.60
2023-01-05T18:16:31.826Z,18.50
2023-01-05T18:19:08.273Z,18.50
2023-01-05T18:21:46.679Z,18.50
2023-01-05T18:24:22.463Z,18.50
2023-01-05T18:26:57.887Z,18.60
2023-01-05T18:29:34.621Z,18.60
2023-01-05T18:32:11.587Z,18.60
2023-01-05T18:34:47.265Z,18.60
2023-01-05T18:40:01.238Z,18.60
2023-01-05T18:42:37.902Z,18.70
2023-01-05T18:45:20.265Z,18.60
2023-01-05T18:48:05.035Z,18.60
2023-01-05T18:50:51.541Z,18.60
2023-01-05T18:53:29.728Z,18.50
2023-01-05T18:56:09.349Z,18.40
2023-01-05T18:58:45.223Z,18.30
2023-01-05T19:01:23.121Z,18.20
2023-01-05T19:03:59.595Z,18.20
2023-01-05T19:06:35.080Z,18.20
2023-01-05T19:09:15.454Z,18.20
2023-01-05T19:11:55.399Z,18.20
2023-01-05T19:14:32.395Z,18.20
2023-01-05T19:17:11.090Z,18.20
2023-01-05T19:19:46.630Z,18.30
2023-01-05T19:22:22.507Z,18.20
2023-01-05T19:25:00.638Z,18.20
2023-01-05T19:27:36.263Z,18.20
2023-01-05T19:30:13.520Z,18.20
2023-01-05T19:32:49.616Z,18.20
2023-01-05T19:35:25.855Z,18.20
2023-01-05T19:38:02.116Z,18.20
2023-01-05T19:40:39.910Z,18.20
2023-01-05T19:43:16.501Z,18.10
2023-01-05T19:45:55.149Z,18.10
2023-01-05T19:48:31.042Z,18.10
2023-01-05T19:51:07.640Z,18.10
2023-01-05T19:53:45.285Z,18.00
2023-01-05T19:56:23.540Z,18.00
2023-01-05T19:59:00.314Z,18.00
2023-01-05T20:01:41.023Z,17.90
2023-01-05T20:04:17.179Z,17.90
2023-01-05T20:06:53.079Z,17.90
2023-01-05T20:09:29.078Z,17.90
2023-01-05T20:12:14.218Z,17.90
2023-01-05T20:14:51.542Z,17.90
2023-01-05T20:17:27.974Z,17.90
2023-01-05T20:20:03.760Z,17.80
2023-01-05T20:22:39.482Z,17.90
2023-01-05T20:25:15.701Z,17.90
2023-01-05T20:27:53.499Z,17.90
2023-01-05T20:30:29.105Z,17.90
2023-01-05T20:33:05.073Z,18.00
2023-01-05T20:35:43.792Z,18.00
2023-01-05T20:38:20.064Z,17.90
2023-01-05T20:40:55.781Z,17.90
2023-01-05T20:43:33.548Z,17.90
2023-01-05T20:46:09.469Z,17.90
2023-01-05T20:48:45.900Z,17.90
2023-01-05T20:51:22.939Z,17.90
2023-01-05T20:53:59.983Z,17.90
2023-01-05T20:56:40.198Z,18.00
2023-01-05T20:59:20.734Z,18.00
2023-01-05T21:01:56.336Z,18.10
2023-01-05T21:04:33.403Z,18.10
2023-01-05T21:07:09.383Z,18.10
2023-01-05T21:09:46.231Z,18.20
2023-01-05T21:12:25.193Z,18.20
2023-01-05T21:15:02.648Z,18.20
2023-01-05T21:17:38.631Z,18.30
2023-01-05T21:20:15.686Z,18.30
2023-01-05T21:22:51.344Z,18.30
2023-01-05T21:25:27.240Z,18.40
2023-01-05T21:28:04.104Z,18.40
2023-01-05T21:30:43.584Z,18.60
2023-01-05T21:33:19.415Z,18.60
2023-01-05T21:35:59.781Z,18.70
2023-01-05T21:39:01.883Z,18.70
2023-01-05T21:41:47.086Z,18.70
2023-01-05T21:44:23.900Z,18.90
2023-01-05T21:47:01.520Z,19.00
2023-01-05T21:49:37.315Z,19.10
2023-01-05T21:52:30.597Z,19.30
2023-01-05T21:55:22.215Z,19.30
2023-01-05T21:57:58.882Z,19.40
2023-01-05T22:00:34.735Z,19.50
2023-01-05T22:03:13.495Z,19.80
2023-01-05T22:05:49.150Z,19.90
2023-01-05T22:08:25.508Z,19.90
2023-01-05T22:11:02.046Z,20.00
2023-01-05T22:13:40.337Z,20.00
2023-01-05T22:16:15.945Z,20.10
2023-01-05T22:18:53.925Z,20.10
2023-01-05T22:21:30.338Z,20.00
2023-01-05T22:24:06.392Z,19.80
2023-01-05T22:26:42.138Z,19.70
2023-01-05T22:29:18.465Z,19.80
2023-01-05T22:31:54.388Z,19.80
2023-01-05T22:34:32.632Z,19.80
2023-01-05T22:37:08.961Z,19.90
2023-01-05T22:39:44.731Z,19.80
2023-01-05T22:42:20.614Z,19.90
2023-01-05T22:44:56.866Z,19.80
2023-01-05T22:47:32.746Z,19.70
2023-01-05T22:50:11.522Z,19.60
2023-01-05T22:52:47.716Z,19.60
2023-01-05T22:55:24.254Z,19.60
2023-01-05T22:57:59.772Z,19.60
2023-01-05T23:00:36.581Z,19.60
2023-01-05T23:03:12.297Z,19.50
2023-01-05T23:05:50.148Z,19.50
2023-01-05T23:08:26.413Z,19.50
2023-01-05T23:11:06.021Z,19.50
2023-01-05T23:13:42.768Z,19.50
2023-01-05T23:16:20.045Z,19.50
2023-01-05T23:18:56.193Z,19.50
2023-01-05T23:21:34.230Z,19.60
2023-01-05T23:24:10.687Z,19.60
2023-01-05T23:26:46.911Z,19.50
2023-01-05T23:29:22.701Z,19.50
2023-01-05T23:31:58.882Z,19.30
2023-01-05T23:34:34.448Z,19.40
2023-01-05T23:37:12.452Z,19.30
2023-01-05T23:39:48.670Z,19.20
2023-01-05T23:42:40.809Z,19.00
2023-01-05T23:45:18.408Z,19.00
2023-01-05T23:47:54.589Z,19.00
2023-01-05T23:50:30.801Z,19.10
2023-01-05T23:53:09.005Z,19.20
2023-01-05T23:55:45.453Z,19.30
2023-01-05T23:58:21.531Z,19.30
